sensor_id;sensor_type;location;lat;lon;timestamp;P1;durP1;ratioP1;P2;durP2;ratioP2
27642;SDS011;15053;48.618;10.024;2023-09-18T00:00:14;12.10;;;8.20;;
27642;SDS011;15053;48.618;10.024;2023-09-18T00:02:40;9.18;;;7.97;;
27642;SDS011;15053;48.618;10.024;2023-09-18T00:05:07;9.38;;;7.68;;
27642;SDS011;15053;48.618;10.024;2023-09-18T00:07:34;9.57;;;7.30;;
27642;SDS011;15053;48.618;10.024;2023-09-18T00:10:00;9.20;;;7.45;;
27642;SDS011;15053;48.618;10.024;2023-09-18T00:12:27;10.13;;;8.52;;
27642;SDS011;15053;48.618;10.024;2023-09-18T00:14:53;10.82;;;9.23;;
27642;SDS011;15053;48.618;10.024;2023-09-18T00:17:20;11.07;;;8.85;;
27642;SDS011;15053;48.618;10.024;2023-09-18T00:19:47;10.35;;;8.15;;
27642;SDS011;15053;48.618;10.024;2023-09-18T00:22:14;10.43;;;9.10;;
27642;SDS011;15053;48.618;10.024;2023-09-18T00:24:40;13.02;;;9.25;;
27642;SDS011;15053;48.618;10.024;2023-09-18T00:27:07;11.05;;;8.35;;
27642;SDS011;15053;48.618;10.024;2023-09-18T00:29:33;10.48;;;8.95;;
27642;SDS011;15053;48.618;10.024;2023-09-18T00:32:00;10.65;;;8.80;;
27642;SDS011;15053;48.618;10.024;2023-09-18T00:34:26;9.18;;;8.25;;
27642;SDS011;15053;48.618;10.024;2023-09-18T00:36:53;10.70;;;8.52;;
27642;SDS011;15053;48.618;10.024;2023-09-18T00:39:19;10.07;;;8.00;;
27642;SDS011;15053;48.618;10.024;2023-09-18T00:41:46;12.32;;;9.00;;
27642;SDS011;15053;48.618;10.024;2023-09-18T00:44:15;11.05;;;8.65;;
27642;SDS011;15053;48.618;10.024;2023-09-18T00:46:42;10.55;;;8.73;;
27642;SDS011;15053;48.618;10.024;2023-09-18T00:49:09;9.98;;;8.52;;
27642;SDS011;15053;48.618;10.024;2023-09-18T00:51:36;10.82;;;9.07;;
27642;SDS011;15053;48.618;10.024;2023-09-18T00:54:03;10.45;;;9.25;;
27642;SDS011;15053;48.618;10.024;2023-09-18T00:56:30;12.98;;;10.77;;
27642;SDS011;15053;48.618;10.024;2023-09-18T00:58:57;11.48;;;9.43;;
27642;SDS011;15053;48.618;10.024;2023-09-18T01:01:23;12.30;;;9.18;;
27642;SDS011;15053;48.618;10.024;2023-09-18T01:03:50;10.23;;;8.57;;
27642;SDS011;15053;48.618;10.024;2023-09-18T01:06:19;12.55;;;9.65;;
27642;SDS011;15053;48.618;10.024;2023-09-18T01:08:47;9.35;;;8.35;;
27642;SDS011;15053;48.618;10.024;2023-09-18T01:16:48;11.15;;;8.70;;
27642;SDS011;15053;48.618;10.024;2023-09-18T01:19:36;16.42;;;9.27;;
27642;SDS011;15053;48.618;10.024;2023-09-18T01:22:08;11.98;;;8.95;;
27642;SDS011;15053;48.618;10.024;2023-09-18T01:24:36;10.77;;;9.00;;
27642;SDS011;15053;48.618;10.024;2023-09-18T01:27:05;11.25;;;8.77;;
27642;SDS011;15053;48.618;10.024;2023-09-18T01:29:33;10.30;;;9.13;;
27642;SDS011;15053;48.618;10.024;2023-09-18T01:31:59;12.43;;;8.65;;
27642;SDS011;15053;48.618;10.024;2023-09-18T01:34:34;12.35;;;9.75;;
27642;SDS011;15053;48.618;10.024;2023-09-18T01:37:05;11.55;;;9.00;;
27642;SDS011;15053;48.618;10.024;2023-09-18T01:39:33;12.50;;;9.55;;
27642;SDS011;15053;48.618;10.024;2023-09-18T01:42:02;10.45;;;9.07;;
27642;SDS011;15053;48.618;10.024;2023-09-18T01:44:34;11.98;;;9.07;;
27642;SDS011;15053;48.618;10.024;2023-09-18T01:47:04;10.30;;;8.93;;
27642;SDS011;15053;48.618;10.024;2023-09-18T01:49:33;10.07;;;8.57;;
27642;SDS011;15053;48.618;10.024;2023-09-18T01:52:02;10.55;;;8.80;;
27642;SDS011;15053;48.618;10.024;2023-09-18T01:54:30;12.93;;;10.80;;
27642;SDS011;15053;48.618;10.024;2023-09-18T01:56:57;11.57;;;10.07;;
27642;SDS011;15053;48.618;10.024;2023-09-18T01:59:24;12.70;;;10.45;;
27642;SDS011;15053;48.618;10.024;2023-09-18T02:01:52;12.65;;;9.80;;
27642;SDS011;15053;48.618;10.024;2023-09-18T02:04:20;12.68;;;10.65;;
27642;SDS011;15053;48.618;10.024;2023-09-18T02:07:07;13.13;;;9.82;;
27642;SDS011;15053;48.618;10.024;2023-09-18T02:09:34;11.88;;;9.80;;
27642;SDS011;15053;48.618;10.024;2023-09-18T02:12:01;11.30;;;9.45;;
27642;SDS011;15053;48.618;10.024;2023-09-18T02:14:27;12.70;;;9.88;;
27642;SDS011;15053;48.618;10.024;2023-09-18T02:16:57;12.32;;;10.57;;
27642;SDS011;15053;48.618;10.024;2023-09-18T02:19:24;13.07;;;9.85;;
27642;SDS011;15053;48.618;10.024;2023-09-18T02:21:50;10.80;;;9.57;;
27642;SDS011;15053;48.618;10.024;2023-09-18T02:24:17;14.02;;;9.90;;
27642;SDS011;15053;48.618;10.024;2023-09-18T02:26:44;13.60;;;10.75;;
27642;SDS011;15053;48.618;10.024;2023-09-18T02:29:11;13.48;;;10.32;;
27642;SDS011;15053;48.618;10.024;2023-09-18T02:31:40;11.68;;;10.07;;
27642;SDS011;15053;48.618;10.024;2023-09-18T02:34:07;12.80;;;10.35;;
27642;SDS011;15053;48.618;10.024;2023-09-18T02:36:37;15.87;;;10.10;;
27642;SDS011;15053;48.618;10.024;2023-09-18T02:39:03;13.68;;;10.35;;
27642;SDS011;15053;48.618;10.024;2023-09-18T02:41:30;11.90;;;9.77;;
27642;SDS011;15053;48.618;10.024;2023-09-18T02:43:57;10.23;;;9.00;;
27642;SDS011;15053;48.618;10.024;2023-09-18T02:46:24;12.00;;;10.23;;
27642;SDS011;15053;48.618;10.024;2023-09-18T02:48:50;12.55;;;10.20;;
27642;SDS011;15053;48.618;10.024;2023-09-18T02:51:18;11.15;;;9.15;;
27642;SDS011;15053;48.618;10.024;2023-09-18T02:53:44;12.93;;;9.68;;
27642;SDS011;15053;48.618;10.024;2023-09-18T02:56:11;11.73;;;9.77;;
27642;SDS011;15053;48.618;10.024;2023-09-18T02:58:37;12.85;;;10.25;;
27642;SDS011;15053;48.618;10.024;2023-09-18T03:01:06;15.70;;;9.80;;
27642;SDS011;15053;48.618;10.024;2023-09-18T03:03:33;14.88;;;9.68;;
27642;SDS011;15053;48.618;10.024;2023-09-18T03:06:01;14.98;;;10.65;;
27642;SDS011;15053;48.618;10.024;2023-09-18T03:08:29;13.43;;;9.77;;
27642;SDS011;15053;48.618;10.024;2023-09-18T03:10:57;12.00;;;9.30;;
27642;SDS011;15053;48.618;10.024;2023-09-18T03:13:25;14.43;;;10.40;;
27642;SDS011;15053;48.618;10.024;2023-09-18T03:15:57;12.05;;;9.38;;
27642;SDS011;15053;48.618;10.024;2023-09-18T03:18:26;12.32;;;9.38;;
27642;SDS011;15053;48.618;10.024;2023-09-18T03:20:53;14.00;;;10.05;;
27642;SDS011;15053;48.618;10.024;2023-09-18T03:23:20;10.90;;;9.00;;
27642;SDS011;15053;48.618;10.024;2023-09-18T03:25:47;13.35;;;9.95;;
27642;SDS011;15053;48.618;10.024;2023-09-18T03:28:18;11.90;;;10.10;;
27642;SDS011;15053;48.618;10.024;2023-09-18T03:30:46;13.25;;;9.55;;
27642;SDS011;15053;48.618;10.024;2023-09-18T03:33:13;11.05;;;9.30;;
27642;SDS011;15053;48.618;10.024;2023-09-18T03:35:47;13.98;;;9.25;;
27642;SDS011;15053;48.618;10.024;2023-09-18T03:38:18;12.57;;;9.10;;
27642;SDS011;15053;48.618;10.024;2023-09-18T03:40:45;12.90;;;9.82;;
27642;SDS011;15053;48.618;10.024;2023-09-18T03:43:11;12.73;;;9.70;;
27642;SDS011;15053;48.618;10.024;2023-09-18T03:45:39;12.30;;;9.32;;
27642;SDS011;15053;48.618;10.024;2023-09-18T03:48:10;12.13;;;9.33;;
27642;SDS011;15053;48.618;10.024;2023-09-18T03:50:37;12.02;;;9.40;;
27642;SDS011;15053;48.618;10.024;2023-09-18T03:53:05;10.98;;;8.57;;
27642;SDS011;15053;48.618;10.024;2023-09-18T03:55:32;12.50;;;9.15;;
27642;SDS011;15053;48.618;10.024;2023-09-18T03:57:59;10.82;;;9.00;;
27642;SDS011;15053;48.618;10.024;2023-09-18T04:00:26;12.50;;;8.68;;
27642;SDS011;15053;48.618;10.024;2023-09-18T04:02:53;11.45;;;9.40;;
27642;SDS011;15053;48.618;10.024;2023-09-18T04:05:20;11.15;;;8.25;;
27642;SDS011;15053;48.618;10.024;2023-09-18T04:07:47;12.40;;;9.57;;
27642;SDS011;15053;48.618;10.024;2023-09-18T04:10:14;15.52;;;9.68;;
27642;SDS011;15053;48.618;10.024;2023-09-18T04:12:49;13.45;;;9.70;;
27642;SDS011;15053;48.618;10.024;2023-09-18T04:15:19;13.13;;;10.15;;
27642;SDS011;15053;48.618;10.024;2023-09-18T04:17:47;16.40;;;10.60;;
27642;SDS011;15053;48.618;10.024;2023-09-18T04:20:14;15.02;;;10.18;;
27642;SDS011;15053;48.618;10.024;2023-09-18T04:22:45;11.13;;;9.07;;
27642;SDS011;15053;48.618;10.024;2023-09-18T04:25:17;11.27;;;8.32;;
27642;SDS011;15053;48.618;10.024;2023-09-18T04:27:45;11.00;;;7.97;;
27642;SDS011;15053;48.618;10.024;2023-09-18T04:30:12;9.80;;;8.52;;
27642;SDS011;15053;48.618;10.024;2023-09-18T04:32:40;10.10;;;9.00;;
27642;SDS011;15053;48.618;10.024;2023-09-18T04:35:07;11.57;;;8.52;;
27642;SDS011;15053;48.618;10.024;2023-09-18T04:37:35;11.52;;;8.32;;
27642;SDS011;15053;48.618;10.024;2023-09-18T04:40:06;10.30;;;9.10;;
27642;SDS011;15053;48.618;10.024;2023-09-18T04:42:38;9.85;;;8.35;;
27642;SDS011;15053;48.618;10.024;2023-09-18T04:45:06;12.43;;;9.00;;
27642;SDS011;15053;48.618;10.024;2023-09-18T04:47:34;13.75;;;8.93;;
27642;SDS011;15053;48.618;10.024;2023-09-18T04:50:01;12.35;;;8.15;;
27642;SDS011;15053;48.618;10.024;2023-09-18T04:52:38;9.88;;;7.32;;
27642;SDS011;15053;48.618;10.024;2023-09-18T04:55:07;11.55;;;8.45;;
27642;SDS011;15053;48.618;10.024;2023-09-18T04:57:35;12.35;;;7.68;;
27642;SDS011;15053;48.618;10.024;2023-09-18T05:00:02;12.18;;;7.07;;
27642;SDS011;15053;48.618;10.024;2023-09-18T05:02:42;10.00;;;7.07;;
27642;SDS011;15053;48.618;10.024;2023-09-18T05:05:10;12.13;;;7.35;;
27642;SDS011;15053;48.618;10.024;2023-09-18T05:07:37;12.10;;;6.45;;
27642;SDS011;15053;48.618;10.024;2023-09-18T05:10:04;10.10;;;6.40;;
27642;SDS011;15053;48.618;10.024;2023-09-18T05:12:31;9.30;;;6.22;;
27642;SDS011;15053;48.618;10.024;2023-09-18T05:14:58;9.80;;;5.78;;
27642;SDS011;15053;48.618;10.024;2023-09-18T05:17:38;12.25;;;6.85;;
27642;SDS011;15053;48.618;10.024;2023-09-18T05:20:20;11.63;;;6.00;;
27642;SDS011;15053;48.618;10.024;2023-09-18T05:22:51;11.18;;;5.85;;
27642;SDS011;15053;48.618;10.024;2023-09-18T05:25:22;7.85;;;5.32;;
27642;SDS011;15053;48.618;10.024;2023-09-18T05:27:51;9.93;;;5.50;;
27642;SDS011;15053;48.618;10.024;2023-09-18T05:32:55;11.07;;;4.88;;
27642;SDS011;15053;48.618;10.024;2023-09-18T05:35:22;7.65;;;4.45;;
27642;SDS011;15053;48.618;10.024;2023-09-18T05:37:49;9.15;;;4.18;;
27642;SDS011;15053;48.618;10.024;2023-09-18T05:40:20;11.23;;;4.07;;
27642;SDS011;15053;48.618;10.024;2023-09-18T05:42:47;9.98;;;4.47;;
27642;SDS011;15053;48.618;10.024;2023-09-18T05:45:14;8.18;;;3.90;;
27642;SDS011;15053;48.618;10.024;2023-09-18T05:47:41;10.30;;;3.97;;
27642;SDS011;15053;48.618;10.024;2023-09-18T05:50:10;9.48;;;4.50;;
27642;SDS011;15053;48.618;10.024;2023-09-18T05:52:42;8.20;;;3.90;;
27642;SDS011;15053;48.618;10.024;2023-09-18T05:55:09;12.57;;;3.80;;
27642;SDS011;15053;48.618;10.024;2023-09-18T05:57:36;13.63;;;4.72;;
27642;SDS011;15053;48.618;10.024;2023-09-18T06:00:03;10.45;;;3.85;;
27642;SDS011;15053;48.618;10.024;2023-09-18T06:02:37;7.32;;;3.85;;
27642;SDS011;15053;48.618;10.024;2023-09-18T06:05:04;9.85;;;3.67;;
27642;SDS011;15053;48.618;10.024;2023-09-18T06:07:32;9.50;;;3.50;;
27642;SDS011;15053;48.618;10.024;2023-09-18T06:09:59;9.85;;;4.07;;
27642;SDS011;15053;48.618;10.024;2023-09-18T06:12:26;8.45;;;3.95;;
27642;SDS011;15053;48.618;10.024;2023-09-18T06:14:52;8.90;;;3.72;;
27642;SDS011;15053;48.618;10.024;2023-09-18T06:17:19;9.25;;;3.90;;
27642;SDS011;15053;48.618;10.024;2023-09-18T06:19:46;10.20;;;3.80;;
27642;SDS011;15053;48.618;10.024;2023-09-18T06:22:12;14.48;;;4.95;;
27642;SDS011;15053;48.618;10.024;2023-09-18T06:24:40;11.05;;;4.32;;
27642;SDS011;15053;48.618;10.024;2023-09-18T06:27:06;10.60;;;4.95;;
27642;SDS011;15053;48.618;10.024;2023-09-18T06:29:33;8.57;;;3.45;;
27642;SDS011;15053;48.618;10.024;2023-09-18T06:32:01;9.27;;;3.80;;
27642;SDS011;15053;48.618;10.024;2023-09-18T06:34:27;12.35;;;3.72;;
27642;SDS011;15053;48.618;10.024;2023-09-18T06:36:57;14.25;;;4.22;;
27642;SDS011;15053;48.618;10.024;2023-09-18T06:39:23;10.68;;;3.95;;
27642;SDS011;15053;48.618;10.024;2023-09-18T06:41:52;8.88;;;3.67;;
27642;SDS011;15053;48.618;10.024;2023-09-18T06:44:18;12.73;;;4.07;;
27642;SDS011;15053;48.618;10.024;2023-09-18T06:46:45;8.30;;;3.60;;
27642;SDS011;15053;48.618;10.024;2023-09-18T06:49:11;9.52;;;3.72;;
27642;SDS011;15053;48.618;10.024;2023-09-18T06:51:38;11.45;;;3.90;;
27642;SDS011;15053;48.618;10.024;2023-09-18T06:54:09;15.13;;;3.78;;
27642;SDS011;15053;48.618;10.024;2023-09-18T06:56:35;12.77;;;4.53;;
27642;SDS011;15053;48.618;10.024;2023-09-18T06:59:02;13.40;;;3.53;;
27642;SDS011;15053;48.618;10.024;2023-09-18T07:01:29;8.95;;;3.20;;
27642;SDS011;15053;48.618;10.024;2023-09-18T07:03:58;6.22;;;2.88;;
27642;SDS011;15053;48.618;10.024;2023-09-18T07:06:26;8.55;;;2.83;;
27642;SDS011;15053;48.618;10.024;2023-09-18T07:08:53;7.65;;;3.33;;
27642;SDS011;15053;48.618;10.024;2023-09-18T07:11:20;7.20;;;3.33;;
27642;SDS011;15053;48.618;10.024;2023-09-18T07:13:49;6.80;;;3.33;;
27642;SDS011;15053;48.618;10.024;2023-09-18T07:16:15;7.63;;;3.20;;
27642;SDS011;15053;48.618;10.024;2023-09-18T07:18:42;7.68;;;3.22;;
27642;SDS011;15053;48.618;10.024;2023-09-18T07:21:09;6.95;;;3.13;;
27642;SDS011;15053;48.618;10.024;2023-09-18T07:23:36;5.25;;;3.08;;
27642;SDS011;15053;48.618;10.024;2023-09-18T07:26:03;12.88;;;3.33;;
27642;SDS011;15053;48.618;10.024;2023-09-18T07:28:30;8.35;;;2.90;;
27642;SDS011;15053;48.618;10.024;2023-09-18T07:30:56;8.70;;;3.00;;
27642;SDS011;15053;48.618;10.024;2023-09-18T07:33:23;11.65;;;3.45;;
27642;SDS011;15053;48.618;10.024;2023-09-18T07:35:49;6.93;;;3.10;;
27642;SDS011;15053;48.618;10.024;2023-09-18T07:38:19;10.95;;;3.20;;
27642;SDS011;15053;48.618;10.024;2023-09-18T07:40:46;7.80;;;2.53;;
27642;SDS011;15053;48.618;10.024;2023-09-18T07:43:13;9.38;;;2.70;;
27642;SDS011;15053;48.618;10.024;2023-09-18T07:45:40;9.82;;;2.75;;
27642;SDS011;15053;48.618;10.024;2023-09-18T07:48:07;10.48;;;2.95;;
27642;SDS011;15053;48.618;10.024;2023-09-18T07:50:35;6.18;;;2.88;;
27642;SDS011;15053;48.618;10.024;2023-09-18T07:53:02;8.13;;;2.90;;
27642;SDS011;15053;48.618;10.024;2023-09-18T07:55:29;6.50;;;3.05;;
27642;SDS011;15053;48.618;10.024;2023-09-18T07:57:56;10.20;;;2.65;;
27642;SDS011;15053;48.618;10.024;2023-09-18T08:00:23;9.15;;;2.78;;
27642;SDS011;15053;48.618;10.024;2023-09-18T08:02:52;8.07;;;2.60;;
27642;SDS011;15053;48.618;10.024;2023-09-18T08:05:25;8.18;;;3.00;;
27642;SDS011;15053;48.618;10.024;2023-09-18T08:07:54;10.80;;;2.50;;
27642;SDS011;15053;48.618;10.024;2023-09-18T08:10:22;8.52;;;2.70;;
27642;SDS011;15053;48.618;10.024;2023-09-18T08:12:49;5.50;;;2.15;;
27642;SDS011;15053;48.618;10.024;2023-09-18T08:15:19;5.30;;;2.60;;
27642;SDS011;15053;48.618;10.024;2023-09-18T08:17:46;6.20;;;1.90;;
27642;SDS011;15053;48.618;10.024;2023-09-18T08:20:15;5.38;;;2.42;;
27642;SDS011;15053;48.618;10.024;2023-09-18T08:22:42;7.70;;;2.33;;
27642;SDS011;15053;48.618;10.024;2023-09-18T08:25:10;6.95;;;1.80;;
27642;SDS011;15053;48.618;10.024;2023-09-18T08:27:38;8.00;;;2.40;;
27642;SDS011;15053;48.618;10.024;2023-09-18T08:30:11;6.95;;;2.70;;
27642;SDS011;15053;48.618;10.024;2023-09-18T08:32:39;5.85;;;1.60;;
27642;SDS011;15053;48.618;10.024;2023-09-18T08:35:07;7.47;;;2.17;;
27642;SDS011;15053;48.618;10.024;2023-09-18T08:37:34;5.97;;;1.50;;
27642;SDS011;15053;48.618;10.024;2023-09-18T08:40:01;5.32;;;1.90;;
27642;SDS011;15053;48.618;10.024;2023-09-18T08:42:40;8.38;;;1.77;;
27642;SDS011;15053;48.618;10.024;2023-09-18T08:45:13;6.25;;;2.03;;
27642;SDS011;15053;48.618;10.024;2023-09-18T08:47:45;5.93;;;1.60;;
27642;SDS011;15053;48.618;10.024;2023-09-18T08:50:13;3.38;;;1.70;;
27642;SDS011;15053;48.618;10.024;2023-09-18T08:52:41;17.85;;;2.35;;
27642;SDS011;15053;48.618;10.024;2023-09-18T08:55:09;3.92;;;1.55;;
27642;SDS011;15053;48.618;10.024;2023-09-18T08:57:36;5.72;;;1.40;;
27642;SDS011;15053;48.618;10.024;2023-09-18T09:00:04;6.53;;;1.67;;
27642;SDS011;15053;48.618;10.024;2023-09-18T09:02:34;5.00;;;1.80;;
27642;SDS011;15053;48.618;10.024;2023-09-18T09:05:00;4.68;;;1.55;;
27642;SDS011;15053;48.618;10.024;2023-09-18T09:07:27;3.85;;;1.50;;
27642;SDS011;15053;48.618;10.024;2023-09-18T09:09:57;11.38;;;2.10;;
27642;SDS011;15053;48.618;10.024;2023-09-18T09:15:28;4.53;;;1.35;;
27642;SDS011;15053;48.618;10.024;2023-09-18T09:18:05;4.13;;;1.67;;
27642;SDS011;15053;48.618;10.024;2023-09-18T09:20:35;7.18;;;1.42;;
27642;SDS011;15053;48.618;10.024;2023-09-18T09:23:03;2.40;;;1.20;;
27642;SDS011;15053;48.618;10.024;2023-09-18T09:25:31;4.95;;;1.55;;
27642;SDS011;15053;48.618;10.024;2023-09-18T09:28:00;5.28;;;2.17;;
27642;SDS011;15053;48.618;10.024;2023-09-18T09:30:30;4.50;;;1.50;;
27642;SDS011;15053;48.618;10.024;2023-09-18T09:32:58;5.65;;;1.50;;
27642;SDS011;15053;48.618;10.024;2023-09-18T09:35:29;6.03;;;1.60;;
27642;SDS011;15053;48.618;10.024;2023-09-18T09:37:58;2.20;;;1.08;;
27642;SDS011;15053;48.618;10.024;2023-09-18T09:40:30;4.65;;;1.20;;
27642;SDS011;15053;48.618;10.024;2023-09-18T09:42:57;4.53;;;1.30;;
27642;SDS011;15053;48.618;10.024;2023-09-18T09:45:31;5.82;;;1.48;;
27642;SDS011;15053;48.618;10.024;2023-09-18T09:48:02;3.22;;;1.20;;
27642;SDS011;15053;48.618;10.024;2023-09-18T09:50:31;2.75;;;0.93;;
27642;SDS011;15053;48.618;10.024;2023-09-18T09:52:59;4.68;;;1.38;;
27642;SDS011;15053;48.618;10.024;2023-09-18T09:55:27;6.38;;;1.15;;
27642;SDS011;15053;48.618;10.024;2023-09-18T09:58:02;3.70;;;1.17;;
27642;SDS011;15053;48.618;10.024;2023-09-18T10:00:45;4.50;;;1.30;;
27642;SDS011;15053;48.618;10.024;2023-09-18T10:03:17;4.03;;;1.30;;
27642;SDS011;15053;48.618;10.024;2023-09-18T10:05:45;4.38;;;1.58;;
27642;SDS011;15053;48.618;10.024;2023-09-18T10:08:17;6.65;;;1.35;;
27642;SDS011;15053;48.618;10.024;2023-09-18T10:10:52;4.00;;;1.27;;
27642;SDS011;15053;48.618;10.024;2023-09-18T10:13:23;4.50;;;2.13;;
27642;SDS011;15053;48.618;10.024;2023-09-18T10:15:55;3.83;;;2.00;;
27642;SDS011;15053;48.618;10.024;2023-09-18T10:18:27;4.75;;;1.75;;
27642;SDS011;15053;48.618;10.024;2023-09-18T10:20:56;5.53;;;1.15;;
27642;SDS011;15053;48.618;10.024;2023-09-18T10:24:01;4.00;;;1.27;;
27642;SDS011;15053;48.618;10.024;2023-09-18T10:26:40;4.32;;;1.40;;
27642;SDS011;15053;48.618;10.024;2023-09-18T10:29:17;2.13;;;1.30;;
27642;SDS011;15053;48.618;10.024;2023-09-18T10:31:45;5.47;;;1.45;;
27642;SDS011;15053;48.618;10.024;2023-09-18T10:34:13;4.03;;;1.17;;
27642;SDS011;15053;48.618;10.024;2023-09-18T10:36:42;3.22;;;1.40;;
27642;SDS011;15053;48.618;10.024;2023-09-18T10:39:10;5.55;;;1.70;;
27642;SDS011;15053;48.618;10.024;2023-09-18T10:41:39;4.82;;;1.75;;
27642;SDS011;15053;48.618;10.024;2023-09-18T10:44:08;3.58;;;1.20;;
27642;SDS011;15053;48.618;10.024;2023-09-18T10:46:36;5.75;;;1.20;;
27642;SDS011;15053;48.618;10.024;2023-09-18T10:49:03;2.55;;;1.40;;
27642;SDS011;15053;48.618;10.024;2023-09-18T10:51:31;2.42;;;1.05;;
27642;SDS011;15053;48.618;10.024;2023-09-18T10:54:00;3.97;;;1.13;;
27642;SDS011;15053;48.618;10.024;2023-09-18T10:56:27;1.92;;;1.05;;
27642;SDS011;15053;48.618;10.024;2023-09-18T10:58:59;2.00;;;1.00;;
27642;SDS011;15053;48.618;10.024;2023-09-18T11:01:27;4.40;;;1.17;;
27642;SDS011;15053;48.618;10.024;2023-09-18T11:04:00;3.88;;;1.55;;
27642;SDS011;15053;48.618;10.024;2023-09-18T11:06:28;2.03;;;0.95;;
27642;SDS011;15053;48.618;10.024;2023-09-18T11:08:59;2.58;;;0.77;;
27642;SDS011;15053;48.618;10.024;2023-09-18T11:11:31;10.35;;;1.02;;
27642;SDS011;15053;48.618;10.024;2023-09-18T11:13:59;1.23;;;0.90;;
27642;SDS011;15053;48.618;10.024;2023-09-18T11:21:32;3.08;;;1.10;;
27642;SDS011;15053;48.618;10.024;2023-09-18T11:24:04;4.82;;;0.80;;
27642;SDS011;15053;48.618;10.024;2023-09-18T11:26:39;3.22;;;0.98;;
27642;SDS011;15053;48.618;10.024;2023-09-18T11:29:08;3.60;;;1.00;;
27642;SDS011;15053;48.618;10.024;2023-09-18T11:31:46;4.25;;;1.50;;
27642;SDS011;15053;48.618;10.024;2023-09-18T11:34:20;2.00;;;1.30;;
27642;SDS011;15053;48.618;10.024;2023-09-18T11:36:48;2.53;;;1.23;;
27642;SDS011;15053;48.618;10.024;2023-09-18T11:39:36;2.33;;;1.10;;
27642;SDS011;15053;48.618;10.024;2023-09-18T11:42:08;2.35;;;0.95;;
27642;SDS011;15053;48.618;10.024;2023-09-18T11:44:36;4.60;;;1.23;;
27642;SDS011;15053;48.618;10.024;2023-09-18T11:47:09;3.58;;;1.33;;
27642;SDS011;15053;48.618;10.024;2023-09-18T11:49:45;5.78;;;1.95;;
27642;SDS011;15053;48.618;10.024;2023-09-18T11:52:17;2.35;;;1.05;;
27642;SDS011;15053;48.618;10.024;2023-09-18T11:54:45;3.25;;;1.10;;
27642;SDS011;15053;48.618;10.024;2023-09-18T11:57:13;2.03;;;1.15;;
27642;SDS011;15053;48.618;10.024;2023-09-18T11:59:41;1.42;;;1.05;;
27642;SDS011;15053;48.618;10.024;2023-09-18T12:02:13;4.03;;;1.63;;
27642;SDS011;15053;48.618;10.024;2023-09-18T12:04:47;3.72;;;1.55;;
27642;SDS011;15053;48.618;10.024;2023-09-18T12:07:14;4.70;;;2.00;;
27642;SDS011;15053;48.618;10.024;2023-09-18T12:09:41;4.85;;;1.77;;
27642;SDS011;15053;48.618;10.024;2023-09-18T12:12:08;6.63;;;1.90;;
27642;SDS011;15053;48.618;10.024;2023-09-18T12:14:35;8.32;;;2.08;;
27642;SDS011;15053;48.618;10.024;2023-09-18T12:17:02;16.52;;;2.70;;
27642;SDS011;15053;48.618;10.024;2023-09-18T12:19:30;5.03;;;2.13;;
27642;SDS011;15053;48.618;10.024;2023-09-18T12:21:56;3.63;;;1.88;;
27642;SDS011;15053;48.618;10.024;2023-09-18T12:24:24;6.80;;;2.42;;
27642;SDS011;15053;48.618;10.024;2023-09-18T12:26:51;6.15;;;2.47;;
27642;SDS011;15053;48.618;10.024;2023-09-18T12:29:19;4.93;;;2.53;;
27642;SDS011;15053;48.618;10.024;2023-09-18T12:31:47;3.65;;;2.35;;
27642;SDS011;15053;48.618;10.024;2023-09-18T12:34:15;4.25;;;2.50;;
27642;SDS011;15053;48.618;10.024;2023-09-18T12:36:43;6.63;;;2.40;;
27642;SDS011;15053;48.618;10.024;2023-09-18T12:39:13;5.20;;;2.15;;
27642;SDS011;15053;48.618;10.024;2023-09-18T12:41:43;8.95;;;2.72;;
27642;SDS011;15053;48.618;10.024;2023-09-18T12:44:11;4.85;;;2.25;;
27642;SDS011;15053;48.618;10.024;2023-09-18T12:46:38;4.55;;;1.88;;
27642;SDS011;15053;48.618;10.024;2023-09-18T12:51:43;5.90;;;1.92;;
27642;SDS011;15053;48.618;10.024;2023-09-18T12:54:10;7.55;;;2.63;;
27642;SDS011;15053;48.618;10.024;2023-09-18T12:56:40;12.82;;;6.18;;
27642;SDS011;15053;48.618;10.024;2023-09-18T12:59:08;14.68;;;6.38;;
27642;SDS011;15053;48.618;10.024;2023-09-18T13:01:45;4.50;;;1.83;;
27642;SDS011;15053;48.618;10.024;2023-09-18T13:04:14;7.63;;;2.95;;
27642;SDS011;15053;48.618;10.024;2023-09-18T13:06:41;4.78;;;2.63;;
27642;SDS011;15053;48.618;10.024;2023-09-18T13:09:26;5.95;;;2.75;;
27642;SDS011;15053;48.618;10.024;2023-09-18T13:11:56;5.68;;;3.22;;
27642;SDS011;15053;48.618;10.024;2023-09-18T13:14:24;7.30;;;2.75;;
27642;SDS011;15053;48.618;10.024;2023-09-18T13:16:51;6.30;;;3.42;;
27642;SDS011;15053;48.618;10.024;2023-09-18T13:19:17;26.80;;;15.57;;
27642;SDS011;15053;48.618;10.024;2023-09-18T13:21:48;14.75;;;9.00;;
27642;SDS011;15053;48.618;10.024;2023-09-18T13:24:27;9.35;;;4.70;;
27642;SDS011;15053;48.618;10.024;2023-09-18T13:26:56;7.55;;;4.93;;
27642;SDS011;15053;48.618;10.024;2023-09-18T13:29:25;7.28;;;3.05;;
27642;SDS011;15053;48.618;10.024;2023-09-18T13:31:51;16.20;;;9.75;;
27642;SDS011;15053;48.618;10.024;2023-09-18T13:34:18;6.82;;;3.20;;
27642;SDS011;15053;48.618;10.024;2023-09-18T13:36:45;5.10;;;2.78;;
27642;SDS011;15053;48.618;10.024;2023-09-18T13:39:12;6.35;;;2.92;;
27642;SDS011;15053;48.618;10.024;2023-09-18T13:41:39;13.95;;;6.57;;
27642;SDS011;15053;48.618;10.024;2023-09-18T13:44:07;5.32;;;3.78;;
27642;SDS011;15053;48.618;10.024;2023-09-18T13:46:34;4.75;;;2.63;;
27642;SDS011;15053;48.618;10.024;2023-09-18T13:49:03;5.20;;;3.50;;
27642;SDS011;15053;48.618;10.024;2023-09-18T13:51:33;4.55;;;3.00;;
27642;SDS011;15053;48.618;10.024;2023-09-18T13:54:00;4.90;;;2.95;;
27642;SDS011;15053;48.618;10.024;2023-09-18T13:56:27;9.55;;;3.00;;
27642;SDS011;15053;48.618;10.024;2023-09-18T13:58:56;6.80;;;4.03;;
27642;SDS011;15053;48.618;10.024;2023-09-18T14:01:23;11.25;;;6.60;;
27642;SDS011;15053;48.618;10.024;2023-09-18T14:03:54;4.78;;;2.78;;
27642;SDS011;15053;48.618;10.024;2023-09-18T14:06:21;7.95;;;2.90;;
27642;SDS011;15053;48.618;10.024;2023-09-18T14:08:48;4.68;;;2.90;;
27642;SDS011;15053;48.618;10.024;2023-09-18T14:11:15;7.03;;;3.28;;
27642;SDS011;15053;48.618;10.024;2023-09-18T14:13:42;7.43;;;3.17;;
27642;SDS011;15053;48.618;10.024;2023-09-18T14:16:09;6.38;;;3.08;;
27642;SDS011;15053;48.618;10.024;2023-09-18T14:18:37;5.20;;;2.95;;
27642;SDS011;15053;48.618;10.024;2023-09-18T14:21:03;6.90;;;3.80;;
27642;SDS011;15053;48.618;10.024;2023-09-18T14:23:30;5.20;;;3.25;;
27642;SDS011;15053;48.618;10.024;2023-09-18T14:25:57;6.85;;;4.45;;
27642;SDS011;15053;48.618;10.024;2023-09-18T14:28:25;4.13;;;2.83;;
27642;SDS011;15053;48.618;10.024;2023-09-18T14:30:52;3.80;;;2.70;;
27642;SDS011;15053;48.618;10.024;2023-09-18T14:33:18;5.47;;;4.22;;
27642;SDS011;15053;48.618;10.024;2023-09-18T14:35:45;9.95;;;5.50;;
27642;SDS011;15053;48.618;10.024;2023-09-18T14:38:11;3.15;;;2.67;;
27642;SDS011;15053;48.618;10.024;2023-09-18T14:40:41;8.70;;;4.78;;
27642;SDS011;15053;48.618;10.024;2023-09-18T14:43:08;8.43;;;2.92;;
27642;SDS011;15053;48.618;10.024;2023-09-18T14:45:35;6.35;;;2.70;;
27642;SDS011;15053;48.618;10.024;2023-09-18T14:48:01;4.38;;;2.35;;
27642;SDS011;15053;48.618;10.024;2023-09-18T14:50:28;8.02;;;4.43;;
27642;SDS011;15053;48.618;10.024;2023-09-18T14:52:54;12.10;;;2.80;;
27642;SDS011;15053;48.618;10.024;2023-09-18T14:55:21;6.30;;;3.00;;